Twin Groves, Arkansas
Current Conditions -  °F | °C
As of 9:58 AM on Friday 24 Oct 2014 (Local Time) from KLRF Reporting Station
Clear Clear  
Wind Chill: 59°   Ceiling: Unl
Heat Index: 59°   Visibility: 10mi
Dew Point: 50°   Wind: 2mph
Humidity: 74%   Direction: 290°WNW
Pressure: 30.18"   Gusts: NA
Location:  35.3032°N, 92.4407°W
Report Text: KLRF 241458Z AUTO 29002KT 10SM CLR 15/10 A3018 RMK AO2 SLP222 T01480102 52008
Loading
Personal Weather Stations






























Interactive Weather Map
Tropical Storm Tracking
New forecast layout! Learn more

10-Day Weather Forecast

Advertisements
Track Severe Weather on mobile